Time;durP1;ratioP1;P1;durP2;ratioP2;P2;SDS_P1;SDS_P2;PMS_P1;PMS_P2;Temp;Humidity;BMP_temperature;BMP_pressure;BME280_temperature;BME280_humidity;BME280_pressure;Samples;Min_cycle;Max_cycle;Signal;HPM_P1;HPM_P2
2024/04/11 00:00:42;;;;;;;5.05;0.77;;;14.60;44.00;;;;;;6804962;26;19994;-72
2024/04/11 00:03:44;;;;;;;5.88;1.05;;;14.70;44.10;;;;;;6809570;26;20073;-71
2024/04/11 00:06:44;;;;;;;1.80;0.63;;;14.60;44.50;;;;;;6809585;26;20434;-72
2024/04/11 00:09:47;;;;;;;2.55;0.68;;;14.50;44.60;;;;;;6788494;26;20436;-70
2024/04/11 00:12:48;;;;;;;5.40;1.15;;;14.40;44.80;;;;;;6839046;25;19990;-69
2024/04/11 00:15:53;;;;;;;6.00;0.70;;;14.30;45.00;;;;;;6778944;26;19990;-72
2024/04/11 00:18:53;;;;;;;6.05;1.05;;;14.30;45.30;;;;;;6733679;26;20069;-72
2024/04/11 00:21:55;;;;;;;1.40;0.77;;;14.30;45.50;;;;;;6766980;26;20440;-71
2024/04/11 00:24:59;;;;;;;2.35;1.10;;;14.20;45.50;;;;;;6841440;26;20069;-71
2024/04/11 00:28:00;;;;;;;5.60;0.70;;;14.20;45.60;;;;;;6808024;26;20017;-70
2024/04/11 00:31:01;;;;;;;1.15;0.77;;;14.20;45.80;;;;;;6840976;26;20041;-71
2024/04/11 00:34:16;;;;;;;8.88;1.42;;;14.20;45.90;;;;;;6778071;26;20129;-72
2024/04/11 00:37:17;;;;;;;0.75;0.63;;;14.20;46.10;;;;;;6841369;26;20029;-71
2024/04/11 00:40:20;;;;;;;6.00;1.15;;;14.10;46.20;;;;;;6841509;26;20001;-70
2024/04/11 00:43:21;;;;;;;5.03;1.27;;;14.10;46.40;;;;;;6841855;26;20323;-71
2024/04/11 00:46:23;;;;;;;3.65;0.85;;;14.10;46.50;;;;;;6842184;26;20033;-71
2024/04/11 00:49:25;;;;;;;4.07;1.30;;;14.00;46.70;;;;;;6809523;26;20001;-71
2024/04/11 00:52:29;;;;;;;2.15;1.13;;;14.00;46.90;;;;;;6809774;26;19997;-71
2024/04/11 00:55:30;;;;;;;2.72;0.60;;;14.00;47.00;;;;;;6807312;25;19997;-72
2024/04/11 00:58:31;;;;;;;4.72;1.00;;;14.00;47.20;;;;;;6794595;26;20425;-72
2024/04/11 01:01:34;;;;;;;0.80;0.68;;;13.90;47.40;;;;;;6765396;26;20353;-72
2024/04/11 01:04:35;;;;;;;1.98;0.82;;;13.90;47.60;;;;;;6841022;26;19997;-71
2024/04/11 01:07:38;;;;;;;4.95;1.20;;;13.80;47.90;;;;;;6807395;26;20369;-72
2024/04/11 01:10:40;;;;;;;1.27;0.80;;;13.70;48.00;;;;;;6839290;26;20009;-73
2024/04/11 01:13:41;;;;;;;3.28;1.00;;;13.70;48.30;;;;;;6802281;26;20053;-72
2024/04/11 01:16:43;;;;;;;3.60;0.93;;;13.60;48.40;;;;;;6840626;26;21179;-71
2024/04/11 01:19:47;;;;;;;3.08;1.40;;;13.60;48.80;;;;;;6798818;26;19999;-71
2024/04/11 01:22:49;;;;;;;1.58;0.50;;;13.50;49.10;;;;;;6839871;26;20001;-70
2024/04/11 01:25:49;;;;;;;1.40;1.00;;;13.60;49.20;;;;;;6807293;26;20116;-69
2024/04/11 01:28:53;;;;;;;3.45;0.63;;;13.50;49.30;;;;;;6807892;26;20009;-70
2024/04/11 01:31:54;;;;;;;3.45;1.08;;;13.50;49.40;;;;;;6807389;26;20084;-71
2024/04/11 01:34:56;;;;;;;0.75;0.68;;;13.40;49.40;;;;;;6806780;25;20001;-71
2024/04/11 01:38:01;;;;;;;1.13;0.60;;;13.40;49.50;;;;;;6839824;26;20007;-71
2024/04/11 01:41:02;;;;;;;1.45;0.77;;;13.40;49.50;;;;;;6808935;26;20037;-71
2024/04/11 01:44:05;;;;;;;7.82;1.33;;;13.40;49.50;;;;;;6776794;26;20021;-71
2024/04/11 01:47:06;;;;;;;2.25;0.68;;;13.30;49.40;;;;;;6807878;26;20005;-71
2024/04/11 01:50:07;;;;;;;6.95;1.33;;;13.30;49.40;;;;;;6807618;26;20073;-70
2024/04/11 01:53:09;;;;;;;6.38;1.17;;;13.30;49.40;;;;;;6777905;26;19997;-72
2024/04/11 01:56:11;;;;;;;6.63;0.82;;;13.20;49.30;;;;;;6776543;26;20009;-71
2024/04/11 01:59:13;;;;;;;2.15;0.70;;;13.20;49.40;;;;;;6836661;26;20074;-72
2024/04/11 02:02:16;;;;;;;1.05;0.68;;;13.20;49.40;;;;;;6807130;26;20029;-73
2024/04/11 02:05:20;;;;;;;1.58;0.80;;;13.20;49.60;;;;;;6835895;26;20012;-70
2024/04/11 02:08:26;;;;;;;2.97;1.10;;;13.10;50.10;;;;;;6840372;26;20009;-71
2024/04/11 02:11:27;;;;;;;0.80;0.80;;;13.00;50.50;;;;;;6807434;26;20001;-71
2024/04/11 02:14:32;;;;;;;0.90;0.68;;;12.90;50.70;;;;;;6821976;26;20004;-71
2024/04/11 02:17:34;;;;;;;2.83;1.15;;;12.70;50.90;;;;;;6806523;26;20001;-72
2024/04/11 02:20:35;;;;;;;1.25;0.98;;;12.70;51.10;;;;;;6764445;26;20016;-71
2024/04/11 02:23:39;;;;;;;1.25;0.70;;;12.70;51.10;;;;;;6773405;26;19997;-71
2024/04/11 02:26:41;;;;;;;3.97;1.20;;;12.70;51.20;;;;;;6808016;26;20012;-72
2024/04/11 02:29:41;;;;;;;2.58;1.50;;;12.70;51.30;;;;;;6806877;26;20016;-71
2024/04/11 02:32:43;;;;;;;1.25;0.82;;;12.60;51.30;;;;;;6798359;26;20012;-70
2024/04/11 02:35:46;;;;;;;2.72;1.13;;;12.60;51.30;;;;;;6837829;26;20409;-72
2024/04/11 02:38:49;;;;;;;0.95;0.68;;;12.70;51.40;;;;;;6805722;26;19997;-70
2024/04/11 02:41:51;;;;;;;1.95;0.82;;;12.60;51.50;;;;;;6804544;26;20475;-71
2024/04/11 02:44:53;;;;;;;2.33;0.80;;;12.70;51.50;;;;;;6805239;26;20041;-72
2024/04/11 02:47:57;;;;;;;5.93;1.50;;;12.80;51.60;;;;;;6805539;26;20554;-72
2024/04/11 02:50:58;;;;;;;3.10;0.95;;;12.60;51.50;;;;;;6838967;26;20028;-71
2024/04/11 02:54:05;;;;;;;4.72;0.80;;;12.80;51.50;;;;;;6835690;26;20017;-71
2024/04/11 02:57:07;;;;;;;3.83;1.30;;;12.60;51.40;;;;;;6807136;26;20036;-71
2024/04/11 03:00:09;;;;;;;2.95;1.00;;;12.60;51.30;;;;;;6805885;26;20004;-71
2024/04/11 03:03:12;;;;;;;4.05;1.10;;;12.60;51.20;;;;;;6806625;26;20437;-71
2024/04/11 03:06:21;;;;;;;2.20;0.80;;;12.60;51.30;;;;;;6834721;26;20073;-72
2024/04/11 03:09:23;;;;;;;3.60;1.65;;;12.50;51.50;;;;;;6838554;25;20081;-73
2024/04/11 03:12:25;;;;;;;4.57;0.88;;;12.40;51.80;;;;;;6802811;26;20009;-72
2024/04/11 03:15:28;;;;;;;7.43;1.05;;;12.40;52.20;;;;;;6805222;26;20126;-72
2024/04/11 03:18:31;;;;;;;7.25;1.33;;;12.30;52.30;;;;;;6775806;25;20005;-71
2024/04/11 03:21:32;;;;;;;6.38;1.20;;;12.30;52.40;;;;;;6805450;26;20005;-70
2024/04/11 03:24:33;;;;;;;5.93;1.10;;;12.30;52.50;;;;;;6836949;26;20008;-72
2024/04/11 03:27:37;;;;;;;2.45;1.10;;;12.20;52.70;;;;;;6799636;26;20355;-72
2024/04/11 03:30:40;;;;;;;5.78;1.48;;;12.20;53.00;;;;;;6788154;26;19997;-70
2024/04/11 03:33:40;;;;;;;4.80;1.35;;;12.20;53.10;;;;;;6775274;26;20008;-71
2024/04/11 03:36:44;;;;;;;4.20;0.85;;;12.20;53.10;;;;;;6774666;26;19994;-72
2024/04/11 03:39:46;;;;;;;3.85;0.95;;;12.20;53.10;;;;;;6806125;26;20064;-72
2024/04/11 03:42:49;;;;;;;1.58;1.20;;;12.20;53.10;;;;;;6837993;25;20005;-70
2024/04/11 03:45:54;;;;;;;1.73;0.85;;;12.20;53.20;;;;;;6837768;26;20176;-69
2024/04/11 03:48:58;;;;;;;2.50;1.15;;;12.20;53.20;;;;;;6807237;26;20012;-71
2024/04/11 03:51:59;;;;;;;4.30;1.20;;;12.20;53.20;;;;;;6745284;26;20044;-71
2024/04/11 03:55:01;;;;;;;2.90;0.90;;;12.20;53.30;;;;;;6837775;26;20023;-71
2024/04/11 03:58:03;;;;;;;3.72;1.23;;;12.20;53.40;;;;;;6776177;26;20084;-72
2024/04/11 04:01:13;;;;;;;5.35;0.70;;;12.10;53.50;;;;;;6805310;26;20043;-73
2024/04/11 04:04:19;;;;;;;1.60;0.80;;;12.10;53.70;;;;;;6761952;26;20457;-72
2024/04/11 04:07:21;;;;;;;0.68;0.63;;;12.00;53.80;;;;;;6835854;26;20226;-71
2024/04/11 04:10:23;;;;;;;2.17;1.17;;;12.00;53.90;;;;;;6775664;26;20050;-72
2024/04/11 04:13:26;;;;;;;1.48;0.82;;;12.00;54.00;;;;;;6805904;26;20027;-70
2024/04/11 04:16:29;;;;;;;2.47;0.98;;;11.90;54.10;;;;;;6831214;26;20017;-73
2024/04/11 04:19:30;;;;;;;3.00;2.03;;;11.90;54.20;;;;;;6804794;26;20131;-71
2024/04/11 04:22:32;;;;;;;6.25;1.50;;;11.90;54.20;;;;;;6800859;26;20009;-71
2024/04/11 04:25:38;;;;;;;2.10;1.10;;;11.80;54.30;;;;;;6835187;26;20009;-71
2024/04/11 04:28:40;;;;;;;3.72;1.60;;;11.80;54.40;;;;;;6803637;26;20001;-72
2024/04/11 04:31:42;;;;;;;7.05;1.20;;;11.70;54.40;;;;;;6804223;26;20021;-72
2024/04/11 04:34:47;;;;;;;4.00;1.27;;;11.80;54.50;;;;;;6773395;26;20012;-72
2024/04/11 04:37:50;;;;;;;4.22;1.40;;;11.80;54.60;;;;;;6803398;25;20348;-70
2024/04/11 04:40:52;;;;;;;7.15;1.17;;;11.70;55.10;;;;;;6803051;25;20001;-71
2024/04/11 04:43:57;;;;;;;2.25;1.20;;;11.70;54.60;;;;;;6806096;25;20005;-71
2024/04/11 04:46:58;;;;;;;3.92;1.15;;;11.70;54.90;;;;;;6770617;25;20075;-71
2024/04/11 04:49:59;;;;;;;9.00;0.98;;;11.60;55.10;;;;;;6802884;25;20017;-70
2024/04/11 04:53:01;;;;;;;6.18;1.10;;;11.60;55.20;;;;;;6776890;25;20077;-70
2024/04/11 04:56:03;;;;;;;1.95;1.02;;;11.50;55.40;;;;;;6810099;25;20397;-70
2024/04/11 04:59:04;;;;;;;2.20;1.33;;;11.60;55.40;;;;;;6842120;25;20065;-71
2024/04/11 05:02:06;;;;;;;6.03;1.08;;;11.60;55.40;;;;;;6810428;25;20000;-71
2024/04/11 05:05:07;;;;;;;9.02;1.65;;;11.70;55.40;;;;;;6840412;25;20320;-70
2024/04/11 05:08:08;;;;;;;3.63;1.40;;;11.70;55.40;;;;;;6781575;25;19997;-71
2024/04/11 05:11:12;;;;;;;1.95;1.38;;;11.70;55.40;;;;;;6811175;25;20560;-72
2024/04/11 05:14:16;;;;;;;5.10;1.70;;;11.80;55.30;;;;;;6843226;25;20115;-72
2024/04/11 05:17:20;;;;;;;1.92;0.93;;;11.80;55.30;;;;;;6838105;25;20008;-71
2024/04/11 05:20:27;;;;;;;3.05;1.13;;;11.80;55.30;;;;;;6808195;25;20017;-71
2024/04/11 05:23:32;;;;;;;2.45;1.23;;;11.80;55.30;;;;;;6777435;25;20012;-71
2024/04/11 05:26:33;;;;;;;6.97;1.17;;;11.80;55.40;;;;;;6780175;25;20045;-70
2024/04/11 05:29:34;;;;;;;4.35;1.45;;;11.70;55.40;;;;;;6807940;25;20008;-72
2024/04/11 05:32:37;;;;;;;9.20;1.13;;;11.70;55.60;;;;;;6767927;25;20139;-71
2024/04/11 05:35:39;;;;;;;7.78;1.40;;;11.70;55.50;;;;;;6763934;25;20013;-71
2024/04/11 05:38:41;;;;;;;7.25;1.95;;;11.70;55.40;;;;;;6800798;25;20303;-70
2024/04/11 05:41:46;;;;;;;3.78;2.28;;;11.70;55.30;;;;;;6785363;26;20092;-70
2024/04/11 05:44:47;;;;;;;6.22;1.88;;;11.70;55.30;;;;;;6804495;26;20025;-71
2024/04/11 05:47:48;;;;;;;10.85;2.05;;;11.70;55.30;;;;;;6834802;25;20001;-72
2024/04/11 05:50:51;;;;;;;8.40;2.40;;;11.60;55.20;;;;;;6795565;25;20028;-73
2024/04/11 05:53:51;;;;;;;11.18;2.42;;;11.60;55.20;;;;;;6788095;26;20010;-74
2024/04/11 05:56:52;;;;;;;5.43;1.73;;;11.60;55.30;;;;;;6808117;26;20100;-72
2024/04/11 05:59:55;;;;;;;4.63;2.30;;;11.60;55.30;;;;;;6806410;26;20413;-74
2024/04/11 06:02:57;;;;;;;6.50;2.45;;;11.60;55.40;;;;;;6776469;26;20008;-74
2024/04/11 06:05:58;;;;;;;6.28;2.33;;;11.60;55.40;;;;;;6800984;25;19998;-74
2024/04/11 06:09:00;;;;;;;6.07;2.05;;;11.60;55.50;;;;;;6775268;26;20082;-75
2024/04/11 06:12:01;;;;;;;11.02;1.83;;;11.70;55.50;;;;;;6830766;25;20025;-73
2024/04/11 06:15:02;;;;;;;5.93;1.85;;;11.70;55.50;;;;;;6793602;25;20150;-74
2024/04/11 06:18:09;;;;;;;6.43;1.90;;;11.80;55.50;;;;;;6775061;25;20022;-73
2024/04/11 06:21:11;;;;;;;4.95;1.70;;;11.80;55.50;;;;;;6708040;25;20025;-74
2024/04/11 06:24:12;;;;;;;4.80;2.05;;;11.80;55.40;;;;;;6801846;26;20414;-74
2024/04/11 06:27:13;;;;;;;5.63;2.35;;;11.90;55.50;;;;;;6839713;26;20008;-75
2024/04/11 06:30:14;;;;;;;4.15;1.67;;;11.90;55.50;;;;;;6795846;26;20084;-73
2024/04/11 06:33:16;;;;;;;2.08;1.42;;;12.00;55.50;;;;;;6807559;26;20405;-74
2024/04/11 06:36:18;;;;;;;2.40;1.40;;;12.00;55.60;;;;;;6820136;26;20100;-74
2024/04/11 06:39:18;;;;;;;6.43;2.50;;;12.10;55.70;;;;;;6774778;26;20358;-74
2024/04/11 06:42:21;;;;;;;3.10;1.83;;;12.20;55.70;;;;;;6806328;26;19993;-75
2024/04/11 06:45:25;;;;;;;3.38;1.67;;;12.20;55.60;;;;;;6807808;25;20027;-75
2024/04/11 06:48:26;;;;;;;22.60;5.80;;;12.30;55.50;;;;;;6825887;25;19997;-74
2024/04/11 06:51:30;;;;;;;8.48;2.53;;;12.30;55.30;;;;;;6802238;25;20563;-74
2024/04/11 06:54:33;;;;;;;6.43;2.15;;;12.40;55.10;;;;;;6804950;26;20008;-72
2024/04/11 06:57:37;;;;;;;2.72;1.42;;;12.40;55.00;;;;;;6829439;25;20012;-74
2024/04/11 07:00:41;;;;;;;4.20;1.90;;;12.50;54.90;;;;;;6834669;26;20013;-74
2024/04/11 07:03:53;;;;;;;7.32;2.08;;;12.60;54.80;;;;;;6801248;25;20012;-75
2024/04/11 07:06:57;;;;;;;7.05;2.15;;;12.70;54.80;;;;;;6821228;25;19998;-73
2024/04/11 07:09:59;;;;;;;8.75;1.88;;;12.70;54.60;;;;;;6830840;26;20005;-74
2024/04/11 07:13:01;;;;;;;6.60;2.28;;;12.80;54.30;;;;;;6833808;26;20012;-74
2024/04/11 07:16:06;;;;;;;6.43;2.00;;;12.90;54.20;;;;;;6836702;26;19997;-73
2024/04/11 07:19:08;;;;;;;6.47;2.35;;;13.00;53.90;;;;;;6833365;25;20046;-74
2024/04/11 07:22:09;;;;;;;10.18;2.28;;;13.10;53.70;;;;;;6834154;26;19997;-73
2024/04/11 07:25:10;;;;;;;15.13;2.80;;;13.20;53.50;;;;;;6835668;25;20006;-75
2024/04/11 07:28:12;;;;;;;9.35;2.38;;;13.20;53.20;;;;;;6834324;26;20069;-74
2024/04/11 07:31:16;;;;;;;6.88;2.58;;;13.20;53.20;;;;;;6804098;26;19997;-75
2024/04/11 07:34:17;;;;;;;3.90;2.00;;;13.30;53.20;;;;;;6833569;26;20001;-74
2024/04/11 07:37:25;;;;;;;8.07;2.00;;;13.40;53.00;;;;;;6832064;26;19993;-73
2024/04/11 07:40:32;;;;;;;10.97;2.20;;;13.60;52.80;;;;;;6835023;26;20031;-74
2024/04/11 07:43:38;;;;;;;3.78;1.90;;;13.80;52.60;;;;;;6836486;26;20437;-73
2024/04/11 07:46:39;;;;;;;4.43;2.08;;;13.90;52.30;;;;;;6834526;26;19997;-75
2024/04/11 07:49:42;;;;;;;9.15;2.47;;;14.00;52.10;;;;;;6801153;26;20004;-72
2024/04/11 07:52:43;;;;;;;9.15;2.05;;;14.20;51.80;;;;;;6835474;26;20065;-73
2024/04/11 07:55:46;;;;;;;4.10;2.28;;;14.30;51.40;;;;;;6834330;25;20005;-74
2024/04/11 07:58:58;;;;;;;6.65;2.25;;;14.50;50.90;;;;;;6804653;26;19997;-73
2024/04/11 08:02:00;;;;;;;9.13;2.08;;;14.60;50.80;;;;;;6835059;25;20013;-75
2024/04/11 08:05:01;;;;;;;5.50;2.25;;;14.80;50.50;;;;;;6837212;25;20070;-74
2024/04/11 08:08:06;;;;;;;7.50;2.92;;;15.00;50.00;;;;;;6826966;25;20030;-74
2024/04/11 08:11:10;;;;;;;9.52;2.47;;;15.10;49.70;;;;;;6836013;26;20008;-73
2024/04/11 08:14:12;;;;;;;6.00;1.45;;;15.20;49.30;;;;;;6803759;26;20013;-74
2024/04/11 08:17:15;;;;;;;4.90;1.33;;;15.40;49.20;;;;;;6800362;26;20002;-73
2024/04/11 08:20:16;;;;;;;3.75;1.48;;;15.50;48.80;;;;;;6803093;26;20013;-74
2024/04/11 08:23:20;;;;;;;3.97;1.50;;;15.70;48.50;;;;;;6834703;25;20519;-74
2024/04/11 08:26:21;;;;;;;3.40;1.75;;;15.80;48.00;;;;;;6836511;26;20016;-75
2024/04/11 08:29:23;;;;;;;4.55;1.92;;;15.90;47.40;;;;;;6836331;26;20009;-74
2024/04/11 08:32:24;;;;;;;5.03;2.30;;;16.00;47.30;;;;;;6837985;25;20005;-75
2024/04/11 08:35:24;;;;;;;5.88;1.90;;;16.10;47.00;;;;;;6807222;25;20032;-74
2024/04/11 08:38:26;;;;;;;5.28;1.90;;;16.10;46.40;;;;;;6835761;26;20001;-74
2024/04/11 08:41:27;;;;;;;7.53;1.65;;;16.20;46.40;;;;;;6837923;26;20004;-76
2024/04/11 08:44:30;;;;;;;4.82;1.42;;;16.30;46.30;;;;;;6839160;25;20066;-73
2024/04/11 08:47:31;;;;;;;10.85;1.70;;;16.40;46.20;;;;;;6776209;26;20481;-74
2024/04/11 08:50:34;;;;;;;3.47;1.88;;;16.50;46.00;;;;;;6776853;26;19998;-74
2024/04/11 08:53:41;;;;;;;3.28;1.42;;;16.60;45.80;;;;;;6776681;26;20004;-75
2024/04/11 08:56:49;;;;;;;5.28;1.50;;;16.80;45.50;;;;;;6775218;26;20048;-75
2024/04/11 08:59:52;;;;;;;11.45;3.53;;;16.90;45.20;;;;;;6763375;26;20002;-73
2024/04/11 09:02:58;;;;;;;2.53;1.70;;;17.00;45.00;;;;;;6806533;26;19997;-74
2024/04/11 09:06:01;;;;;;;3.55;1.40;;;17.00;44.90;;;;;;6776135;26;19998;-74
2024/04/11 09:09:10;;;;;;;3.95;1.42;;;17.10;44.60;;;;;;6756553;26;19997;-74
2024/04/11 09:12:14;;;;;;;3.67;1.25;;;17.10;44.50;;;;;;6774787;26;20372;-74
2024/04/11 09:15:18;;;;;;;12.07;1.73;;;17.10;44.50;;;;;;6836153;26;20037;-74
2024/04/11 09:18:24;;;;;;;5.47;1.23;;;17.20;44.50;;;;;;6804488;26;19993;-76
2024/04/11 09:21:24;;;;;;;11.00;3.10;;;17.30;44.30;;;;;;6777147;26;20013;-73
2024/04/11 09:24:25;;;;;;;2.45;1.63;;;17.40;44.30;;;;;;6805652;26;20009;-74
2024/04/11 09:27:28;;;;;;;7.70;2.78;;;17.50;44.10;;;;;;6781627;25;20136;-74
2024/04/11 09:30:54;;;;;;;4.40;1.45;;;17.70;43.70;;;;;;6667381;26;20010;-75
2024/04/11 09:34:05;;;;;;;3.88;1.42;;;17.70;43.40;;;;;;6698058;26;20039;-73
2024/04/11 09:37:13;;;;;;;5.00;1.55;;;17.70;42.80;;;;;;6658526;26;20064;-75
2024/04/11 09:40:26;;;;;;;7.78;2.45;;;17.70;43.00;;;;;;6673708;26;19996;-74
2024/04/11 09:43:31;;;;;;;7.47;1.98;;;17.70;43.10;;;;;;6679075;26;20140;-75
2024/04/11 09:46:37;;;;;;;3.80;1.20;;;17.80;42.30;;;;;;6658683;26;20000;-74
2024/04/11 09:49:43;;;;;;;4.57;1.63;;;17.70;42.00;;;;;;6609952;26;20000;-75
2024/04/11 09:52:45;;;;;;;9.02;1.13;;;17.70;42.30;;;;;;6655301;26;20084;-74
2024/04/11 09:55:47;;;;;;;3.22;1.55;;;17.60;42.10;;;;;;6655505;26;20513;-72
2024/04/11 09:58:48;;;;;;;5.75;1.50;;;17.50;42.20;;;;;;6642582;26;20120;-73
2024/04/11 10:01:50;;;;;;;3.05;1.27;;;17.50;42.50;;;;;;6774667;26;20070;-74
2024/04/11 10:05:06;;;;;;;4.85;1.98;;;17.50;42.50;;;;;;6804635;25;20117;-74
2024/04/11 10:08:16;;;;;;;7.72;2.35;;;17.50;42.70;;;;;;6808466;25;19990;-76
2024/04/11 10:11:22;;;;;;;5.13;1.65;;;17.60;42.80;;;;;;6774207;26;20044;-75
2024/04/11 10:14:28;;;;;;;10.98;1.70;;;17.70;42.60;;;;;;6838267;26;20004;-75
2024/04/11 10:17:29;;;;;;;5.63;1.92;;;17.70;42.40;;;;;;6792987;26;19998;-76
2024/04/11 10:20:59;;;;;;;2.38;1.42;;;17.80;42.30;;;;;;6761700;26;19998;-75
2024/04/11 10:24:23;;;;;;;7.85;2.33;;;17.80;42.50;;;;;;6821727;25;20359;-75
2024/04/11 10:27:34;;;;;;;16.98;5.63;;;17.90;42.40;;;;;;6788409;26;20152;-75
2024/04/11 10:30:40;;;;;;;8.32;2.20;;;18.10;42.30;;;;;;6781238;26;19998;-75
2024/04/11 10:33:53;;;;;;;6.47;1.80;;;18.10;42.40;;;;;;6837377;26;20040;-75
2024/04/11 10:37:25;;;;;;;6.15;1.67;;;18.20;42.20;;;;;;6838524;25;20077;-74
2024/04/11 10:40:26;;;;;;;7.10;1.90;;;18.30;42.30;;;;;;6800762;26;20012;-75
2024/04/11 10:43:27;;;;;;;4.10;2.05;;;18.50;42.10;;;;;;6806089;26;20129;-75
2024/04/11 10:46:30;;;;;;;8.70;2.13;;;18.70;42.20;;;;;;6828211;26;20005;-74
2024/04/11 10:49:33;;;;;;;4.13;1.00;;;19.20;40.70;;;;;;6836751;26;20061;-74
2024/04/11 10:52:34;;;;;;;3.88;1.70;;;19.80;39.70;;;;;;6835835;25;20417;-76
2024/04/11 10:55:36;;;;;;;4.40;1.17;;;20.20;38.60;;;;;;6836918;26;20180;-74
2024/04/11 10:58:41;;;;;;;1.40;0.95;;;20.50;37.40;;;;;;6833825;26;20365;-75
2024/04/11 11:01:47;;;;;;;2.75;1.67;;;20.70;36.50;;;;;;6834983;25;19997;-75
2024/04/11 11:04:50;;;;;;;6.10;1.35;;;21.00;35.90;;;;;;6835105;26;20011;-74
2024/04/11 11:07:54;;;;;;;7.55;1.42;;;21.20;35.90;;;;;;6804667;25;20453;-74
2024/04/11 11:10:56;;;;;;;6.10;2.20;;;21.50;35.60;;;;;;6834586;26;20012;-75
2024/04/11 11:14:00;;;;;;;2.17;1.20;;;21.70;35.10;;;;;;6804349;25;19994;-75
2024/04/11 11:17:02;;;;;;;4.03;2.00;;;22.00;35.00;;;;;;6834562;26;20533;-74
2024/04/11 11:20:09;;;;;;;4.80;1.05;;;22.30;34.50;;;;;;6794407;26;20010;-74
2024/04/11 11:23:13;;;;;;;9.68;1.70;;;22.40;34.40;;;;;;6834800;26;20052;-75
2024/04/11 11:26:22;;;;;;;13.50;1.58;;;22.40;34.40;;;;;;6834963;25;20013;-75
2024/04/11 11:29:28;;;;;;;2.85;1.42;;;22.60;34.30;;;;;;6776437;26;19997;-74
2024/04/11 11:32:35;;;;;;;8.90;1.55;;;22.80;33.60;;;;;;6835060;26;20010;-74
2024/04/11 11:35:38;;;;;;;10.77;1.23;;;22.90;33.40;;;;;;6835110;26;20017;-75
2024/04/11 11:38:40;;;;;;;3.63;1.25;;;23.00;33.00;;;;;;6834593;26;19997;-74
2024/04/11 11:41:47;;;;;;;7.25;1.25;;;23.20;32.60;;;;;;6835487;26;19994;-74
2024/04/11 11:48:12;;;;;;;4.25;1.38;;;23.80;32.70;;;;;;6803474;26;20036;-72
2024/04/11 11:51:13;;;;;;;4.63;1.65;;;24.30;31.80;;;;;;6800005;25;20036;-74
2024/04/11 11:54:14;;;;;;;6.00;1.23;;;24.70;31.50;;;;;;6804384;26;19997;-74
2024/04/11 11:57:17;;;;;;;2.47;0.90;;;25.10;31.00;;;;;;6773883;25;19997;-75
2024/04/11 12:00:22;;;;;;;9.40;1.45;;;25.50;30.70;;;;;;6838389;26;19998;-74
2024/04/11 12:03:23;;;;;;;2.78;1.10;;;26.00;30.10;;;;;;6805625;26;20307;-74
2024/04/11 12:06:37;;;;;;;2.70;1.35;;;26.20;29.60;;;;;;6804912;26;20004;-74
2024/04/11 12:09:43;;;;;;;4.13;1.20;;;26.10;29.50;;;;;;6801735;26;20425;-74
2024/04/11 12:12:48;;;;;;;4.28;1.40;;;26.20;29.60;;;;;;6835677;26;19994;-75
2024/04/11 12:15:51;;;;;;;0.98;0.80;;;26.50;29.60;;;;;;6773257;26;20852;-75
2024/04/11 12:18:54;;;;;;;1.83;1.20;;;26.80;29.40;;;;;;6835493;26;19990;-74
2024/04/11 12:21:56;;;;;;;1.55;1.10;;;27.30;29.00;;;;;;6802356;26;20024;-74
2024/04/11 12:24:57;;;;;;;5.82;1.20;;;27.90;28.20;;;;;;6772155;26;20012;-76
2024/04/11 12:28:03;;;;;;;2.28;0.80;;;28.40;27.80;;;;;;6796652;26;20082;-75
2024/04/11 12:31:09;;;;;;;7.35;1.05;;;28.70;26.90;;;;;;6834529;26;19998;-74
2024/04/11 12:34:14;;;;;;;4.03;1.30;;;29.10;26.70;;;;;;6834355;26;20009;-75
2024/04/11 12:37:24;;;;;;;4.20;1.20;;;29.30;26.50;;;;;;6801471;26;20380;-75
2024/04/11 12:40:39;;;;;;;4.63;1.10;;;29.80;26.20;;;;;;6800681;26;20021;-75
2024/04/11 12:43:41;;;;;;;6.75;1.35;;;30.40;25.50;;;;;;6800921;26;20012;-75
2024/04/11 12:46:56;;;;;;;3.47;1.20;;;31.10;25.20;;;;;;6832846;25;20128;-74
2024/04/11 12:49:58;;;;;;;2.78;1.15;;;31.60;24.50;;;;;;6800555;26;20053;-74
2024/04/11 12:52:59;;;;;;;3.25;1.40;;;32.20;24.10;;;;;;6804920;26;20056;-74
2024/04/11 12:56:00;;;;;;;5.35;1.17;;;32.40;22.90;;;;;;6805023;26;20598;-75
2024/04/11 12:59:05;;;;;;;7.18;1.83;;;32.40;23.20;;;;;;6803791;26;20009;-74
2024/04/11 13:02:08;;;;;;;2.35;1.10;;;32.70;23.20;;;;;;6773529;26;19998;-76
2024/04/11 13:05:13;;;;;;;5.57;1.45;;;33.10;22.90;;;;;;6771743;26;19989;-74
2024/04/11 13:08:14;;;;;;;6.13;1.38;;;33.50;23.10;;;;;;6773499;25;20008;-75
2024/04/11 13:11:36;;;;;;;4.30;1.20;;;34.00;22.20;;;;;;6803768;26;20002;-75
2024/04/11 13:17:58;;;;;;;4.60;1.33;;;35.10;21.70;;;;;;6829024;26;20112;-75
2024/04/11 13:21:03;;;;;;;8.10;1.20;;;35.80;21.20;;;;;;6839848;25;20021;-75
2024/04/11 13:24:10;;;;;;;3.75;1.08;;;36.30;20.80;;;;;;6776653;26;19997;-76
2024/04/11 13:27:16;;;;;;;8.38;1.33;;;36.40;20.40;;;;;;6839058;25;19998;-75
2024/04/11 13:30:17;;;;;;;1.80;1.13;;;36.40;20.30;;;;;;6804871;26;19994;-75
2024/04/11 13:33:23;;;;;;;4.82;1.40;;;36.60;20.30;;;;;;6838778;25;20418;-72
2024/04/11 13:36:31;;;;;;;2.63;1.10;;;36.70;20.10;;;;;;6776399;26;20054;-73
2024/04/11 13:39:43;;;;;;;3.55;0.80;;;36.70;19.80;;;;;;6806462;26;20063;-74
2024/04/11 13:42:46;;;;;;;4.60;0.98;;;36.40;19.70;;;;;;6805878;26;19994;-76
2024/04/11 13:45:55;;;;;;;2.33;1.02;;;36.00;19.80;;;;;;6840046;26;20585;-75
2024/04/11 13:49:07;;;;;;;3.05;1.17;;;35.80;19.90;;;;;;6776688;26;19997;-74
2024/04/11 13:52:26;;;;;;;8.18;1.65;;;35.50;20.00;;;;;;6805485;26;19998;-73
2024/04/11 13:55:30;;;;;;;4.25;0.82;;;34.80;20.10;;;;;;6810907;26;20097;-75
2024/04/11 13:58:35;;;;;;;2.17;1.00;;;34.60;20.60;;;;;;6806942;26;19993;-76
2024/04/11 14:01:42;;;;;;;2.92;1.17;;;34.50;20.50;;;;;;6805953;26;20252;-74
2024/04/11 14:04:46;;;;;;;4.75;1.15;;;34.30;20.50;;;;;;6775660;26;20001;-74
2024/04/11 14:07:47;;;;;;;3.72;1.02;;;33.80;20.80;;;;;;6834735;26;20001;-73
2024/04/11 14:10:48;;;;;;;4.95;1.15;;;32.80;21.50;;;;;;6806588;25;20326;-74
2024/04/11 14:13:53;;;;;;;4.45;1.48;;;31.70;22.50;;;;;;6805539;26;20135;-74
2024/04/11 14:16:56;;;;;;;1.67;1.25;;;30.70;23.40;;;;;;6803713;25;20467;-74
2024/04/11 14:20:19;;;;;;;7.22;1.30;;;29.70;24.20;;;;;;6836652;25;20719;-74
2024/04/11 14:23:32;;;;;;;3.95;1.27;;;28.70;25.00;;;;;;6844567;25;20127;-75
2024/04/11 14:26:51;;;;;;;2.33;1.10;;;27.70;26.00;;;;;;6787823;26;20007;-74
2024/04/11 14:29:53;;;;;;;2.63;1.25;;;26.80;26.90;;;;;;6809799;25;20060;-74
2024/04/11 14:39:17;;;;;;;4.13;1.15;;;24.90;29.10;;;;;;6806556;25;20003;-75
2024/04/11 14:42:22;;;;;;;2.03;1.15;;;24.50;29.90;;;;;;6805549;25;20141;-73
2024/04/11 14:45:23;;;;;;;6.07;1.10;;;24.10;30.40;;;;;;6814673;25;20035;-74
2024/04/11 14:48:42;;;;;;;2.60;1.00;;;23.90;30.80;;;;;;6857481;25;20001;-75
2024/04/11 14:51:44;;;;;;;;;;;23.70;31.40;;;;;;6855433;25;20398;-75
2024/04/11 14:54:46;;;;;;;1.02;0.77;;;23.40;31.60;;;;;;6813617;26;20373;-74
2024/04/11 14:57:47;;;;;;;1.63;0.90;;;23.50;31.90;;;;;;6848398;25;19996;-74
2024/04/11 15:00:48;;;;;;;1.92;0.75;;;23.30;32.30;;;;;;6856407;25;20009;-74
2024/04/11 15:03:57;;;;;;;5.30;1.23;;;23.20;32.60;;;;;;6848518;25;20013;-73
2024/04/11 15:07:02;;;;;;;3.60;1.23;;;23.20;32.70;;;;;;6851896;25;20438;-74
2024/04/11 15:10:16;;;;;;;2.08;0.95;;;23.10;32.70;;;;;;6837384;25;20405;-75
2024/04/11 15:13:20;;;;;;;5.72;1.20;;;23.20;32.90;;;;;;6829525;25;20010;-75
2024/04/11 15:19:27;;;;;;;2.03;0.88;;;23.30;32.80;;;;;;6838497;25;20786;-75
2024/04/11 15:22:35;;;;;;;3.80;1.23;;;23.30;33.00;;;;;;6839013;25;20151;-74
2024/04/11 15:25:39;;;;;;;;;;;23.30;33.10;;;;;;6830571;26;20552;-76
2024/04/11 15:28:52;;;;;;;2.22;1.10;;;23.30;33.10;;;;;;6855416;25;19923;-75
2024/04/11 15:32:22;;;;;;;5.32;1.55;;;23.20;33.10;;;;;;6839615;25;20009;-76
2024/04/11 15:35:23;;;;;;;7.40;1.60;;;23.20;33.20;;;;;;6833121;25;20001;-75
2024/04/11 15:38:28;;;;;;;4.30;1.10;;;23.10;33.40;;;;;;6836146;25;20012;-75
2024/04/11 15:41:32;;;;;;;3.17;1.42;;;23.00;33.40;;;;;;6842441;25;20004;-74
2024/04/11 15:44:37;;;;;;;2.13;1.10;;;23.00;33.50;;;;;;6849751;25;20289;-75
2024/04/11 15:47:37;;;;;;;2.33;0.93;;;23.00;33.60;;;;;;6778870;25;20124;-74
2024/04/11 15:50:40;;;;;;;9.27;1.50;;;23.00;33.60;;;;;;6836226;25;20032;-75
2024/04/11 15:53:49;;;;;;;4.03;1.17;;;22.90;33.60;;;;;;6801498;25;20069;-74
2024/04/11 15:56:53;;;;;;;2.15;1.17;;;23.00;33.70;;;;;;6833946;25;20460;-75
2024/04/11 15:59:58;;;;;;;7.18;1.63;;;23.00;33.60;;;;;;6799879;25;20008;-76
2024/04/11 16:03:02;;;;;;;4.03;1.27;;;23.00;33.70;;;;;;6797655;25;20020;-75
2024/04/11 16:06:11;;;;;;;3.08;1.17;;;23.00;33.60;;;;;;6795879;25;20104;-75
2024/04/11 16:09:16;;;;;;;5.05;1.50;;;23.10;33.60;;;;;;6778013;25;20413;-75
2024/04/11 16:12:19;;;;;;;2.33;1.30;;;23.10;33.60;;;;;;6822449;25;19999;-74
2024/04/11 16:15:21;;;;;;;6.68;1.60;;;23.20;33.70;;;;;;6735655;26;20001;-75